Village of the Hills, Texas
Current Conditions -  °F | °C
As of 7:35 PM on Friday 24 Oct 2014 (Local Time) from KRYW Reporting Station
Clear Clear  
Wind Chill: 76°   Ceiling: Unl
Heat Index: 76°   Visibility: 10mi
Dew Point: 60°   Wind: 3mph
Humidity: 58%   Direction: 120°ESE
Pressure: 30.13"   Gusts: NA
Location:  30.3192°N, 98.0276°W
Report Text: KRYW 250035Z AUTO 12003KT 10SM CLR 24/16 A3013 RMK AO2 T02420155
Loading
Personal Weather Stations






























Interactive Weather Map
Tropical Storm Tracking
New forecast layout! Learn more

10-Day Weather Forecast

Advertisements
Track Severe Weather on mobile